createdAt,value
2023-01-23T00:00:47.671Z,99732.19
2023-01-23T00:03:14.418Z,99740.88
2023-01-23T00:05:41.169Z,99745.22
2023-01-23T00:08:08.079Z,99746.16
2023-01-23T00:10:34.813Z,99744.66
2023-01-23T00:13:01.502Z,99738.66
2023-01-23T00:15:28.281Z,99734.03
2023-01-23T00:17:55.121Z,99740.09
2023-01-23T00:20:21.975Z,99736.47
2023-01-23T00:22:48.819Z,99741.00
2023-01-23T00:25:15.640Z,99741.88
2023-01-23T00:27:42.418Z,99741.91
2023-01-23T00:30:09.908Z,99737.47
2023-01-23T00:32:36.613Z,99728.00
2023-01-23T00:35:04.080Z,99729.84
2023-01-23T00:37:30.833Z,99735.22
2023-01-23T00:39:57.571Z,99733.53
2023-01-23T00:42:24.337Z,99727.41
2023-01-23T00:44:51.274Z,99726.59
2023-01-23T00:47:17.967Z,99723.16
2023-01-23T00:49:44.676Z,99729.97
2023-01-23T00:52:11.362Z,99733.34
2023-01-23T00:54:39.330Z,99728.19
2023-01-23T00:57:06.320Z,99734.22
2023-01-23T00:59:33.174Z,99739.53
2023-01-23T01:01:59.986Z,99741.41
2023-01-23T01:04:26.905Z,99739.72
2023-01-23T01:06:54.288Z,99740.56
2023-01-23T01:09:22.933Z,99741.47
2023-01-23T01:11:49.628Z,99738.03
2023-01-23T01:14:16.526Z,99752.91
2023-01-23T01:16:45.477Z,99740.69
2023-01-23T01:19:14.437Z,99750.28
2023-01-23T01:21:42.256Z,99754.69
2023-01-23T01:24:09.714Z,99748.69
2023-01-23T01:26:36.837Z,99749.59
2023-01-23T01:29:03.755Z,99745.25
2023-01-23T01:31:30.682Z,99753.16
2023-01-23T01:33:57.483Z,99751.50
2023-01-23T01:36:24.623Z,99753.22
2023-01-23T01:38:51.432Z,99752.25
2023-01-23T01:41:18.239Z,99760.00
2023-01-23T01:43:45.944Z,99757.34
2023-01-23T01:46:18.736Z,99752.13
2023-01-23T01:49:14.338Z,99748.56
2023-01-23T01:51:44.108Z,99749.41
2023-01-23T01:54:22.899Z,99744.22
2023-01-23T01:56:58.602Z,99750.09
2023-01-23T01:59:28.437Z,99755.31
2023-01-23T02:02:05.240Z,99755.44
2023-01-23T02:04:36.371Z,99750.97
2023-01-23T02:07:07.942Z,99747.41
2023-01-23T02:09:35.387Z,99748.34
2023-01-23T02:12:02.780Z,99751.16
2023-01-23T02:14:29.664Z,99760.75
2023-01-23T02:17:01.019Z,99752.84
2023-01-23T02:19:30.731Z,99750.16
2023-01-23T02:22:11.581Z,99744.88
2023-01-23T02:25:01.547Z,99757.84
2023-01-23T02:27:28.410Z,99756.97
2023-01-23T02:29:56.334Z,99753.44
2023-01-23T02:32:26.916Z,99752.44
2023-01-23T02:34:57.320Z,99758.34
2023-01-23T02:37:29.863Z,99755.06
2023-01-23T02:39:58.553Z,99768.19
2023-01-23T02:42:26.056Z,99766.22
2023-01-23T02:44:55.795Z,99773.00
2023-01-23T02:47:23.080Z,99759.03
2023-01-23T02:49:49.881Z,99772.19
2023-01-23T02:52:16.701Z,99776.38
2023-01-23T02:54:43.418Z,99764.00
2023-01-23T02:57:10.409Z,99764.19
2023-01-23T02:59:57.085Z,99758.88
2023-01-23T03:02:25.321Z,99766.53
2023-01-23T03:04:52.078Z,99764.97
2023-01-23T03:07:20.271Z,99765.03
2023-01-23T03:09:48.709Z,99767.25
2023-01-23T03:12:16.026Z,99769.44
2023-01-23T03:14:42.762Z,99775.19
2023-01-23T03:17:11.066Z,99772.59
2023-01-23T03:19:39.037Z,99776.38
2023-01-23T03:22:05.922Z,99781.81
2023-01-23T03:24:34.216Z,99783.63
2023-01-23T03:27:01.584Z,99787.88
2023-01-23T03:29:54.399Z,99780.78
2023-01-23T03:32:22.458Z,99785.97
2023-01-23T03:34:49.364Z,99794.00
2023-01-23T03:37:17.507Z,99786.91
2023-01-23T03:40:06.591Z,99787.41
2023-01-23T03:42:34.699Z,99787.28
2023-01-23T03:45:03.345Z,99786.56
2023-01-23T03:47:33.367Z,99787.53
2023-01-23T03:50:00.237Z,99780.41
2023-01-23T03:52:27.402Z,99776.81
2023-01-23T03:54:55.923Z,99772.66
2023-01-23T03:57:22.721Z,99774.22
2023-01-23T04:00:04.377Z,99775.88
2023-01-23T04:02:51.385Z,99777.63
2023-01-23T04:05:18.697Z,99772.94
2023-01-23T04:07:45.374Z,99774.69
2023-01-23T04:10:17.043Z,99777.50
2023-01-23T04:12:48.357Z,99783.84
2023-01-23T04:15:15.155Z,99781.38
2023-01-23T04:17:42.480Z,99788.34
2023-01-23T04:20:12.361Z,99786.44
2023-01-23T04:22:41.431Z,99789.06
2023-01-23T04:25:08.545Z,99789.75
2023-01-23T04:27:35.717Z,99788.94
2023-01-23T04:30:03.596Z,99776.63
2023-01-23T04:32:30.384Z,99777.28
2023-01-23T04:34:57.184Z,99775.94
2023-01-23T04:37:25.350Z,99779.38
2023-01-23T04:39:52.101Z,99776.78
2023-01-23T04:42:19.231Z,99773.31
2023-01-23T04:45:07.804Z,99774.03
2023-01-23T04:47:52.758Z,99781.91
2023-01-23T04:50:20.228Z,99778.50
2023-01-23T04:52:47.147Z,99773.56
2023-01-23T04:55:14.214Z,99779.63
2023-01-23T04:57:42.867Z,99778.94
2023-01-23T05:00:17.532Z,99772.56
2023-01-23T05:02:46.807Z,99777.53
2023-01-23T05:05:14.072Z,99775.94
2023-01-23T05:07:41.813Z,99781.06
2023-01-23T05:10:12.704Z,99776.19
2023-01-23T05:12:39.915Z,99775.56
2023-01-23T05:15:07.942Z,99774.53
2023-01-23T05:17:37.723Z,99775.34
2023-01-23T05:20:05.960Z,99772.28
2023-01-23T05:22:33.615Z,99765.19
2023-01-23T05:25:00.604Z,99761.84
2023-01-23T05:27:29.630Z,99768.03
2023-01-23T05:29:56.382Z,99776.09
2023-01-23T05:32:25.688Z,99783.84
2023-01-23T05:35:18.701Z,99780.44
2023-01-23T05:37:50.133Z,99783.84
2023-01-23T05:40:19.796Z,99789.75
2023-01-23T05:43:14.943Z,99795.72
2023-01-23T05:46:01.580Z,99802.75
2023-01-23T05:48:38.444Z,99801.06
2023-01-23T05:51:09.476Z,99807.03
2023-01-23T05:53:36.377Z,99816.22
2023-01-23T05:56:07.943Z,99817.31
2023-01-23T05:58:41.532Z,99821.84
2023-01-23T06:01:23.003Z,99821.34
2023-01-23T06:04:16.307Z,99822.63
2023-01-23T06:06:54.170Z,99829.66
2023-01-23T06:09:20.877Z,99830.16
2023-01-23T06:11:47.783Z,99816.75
2023-01-23T06:14:15.146Z,99825.72
2023-01-23T06:16:44.923Z,99824.06
2023-01-23T06:19:12.399Z,99829.88
2023-01-23T06:21:40.170Z,99830.25
2023-01-23T06:24:07.276Z,99827.69
2023-01-23T06:26:34.100Z,99827.22
2023-01-23T06:29:01.359Z,99825.97
2023-01-23T06:31:30.415Z,99834.97
2023-01-23T06:33:59.808Z,99836.59
2023-01-23T06:36:31.607Z,99840.69
2023-01-23T06:38:58.785Z,99838.22
2023-01-23T06:41:32.429Z,99839.31
2023-01-23T06:44:02.961Z,99837.53
2023-01-23T06:46:29.923Z,99842.97
2023-01-23T06:48:57.623Z,99839.59
2023-01-23T06:51:24.865Z,99835.88
2023-01-23T06:53:52.123Z,99835.06
2023-01-23T06:56:19.102Z,99830.53
2023-01-23T06:58:47.111Z,99841.94
2023-01-23T07:01:33.136Z,99833.81
2023-01-23T07:04:15.046Z,99842.75
2023-01-23T07:06:43.466Z,99838.38
2023-01-23T07:09:12.049Z,99837.00
2023-01-23T07:11:39.702Z,99843.31
2023-01-23T07:14:06.967Z,99853.09
2023-01-23T07:16:35.891Z,99849.25
2023-01-23T07:19:05.303Z,99842.88
2023-01-23T07:21:33.877Z,99847.09
2023-01-23T07:24:00.662Z,99856.66
2023-01-23T07:26:27.899Z,99859.69
2023-01-23T07:28:54.800Z,99866.81
2023-01-23T07:31:21.704Z,99872.91
2023-01-23T07:33:48.676Z,99871.78
2023-01-23T07:36:15.422Z,99882.31
2023-01-23T07:38:42.262Z,99883.78
2023-01-23T07:41:09.055Z,99892.81
2023-01-23T07:43:35.848Z,99887.47
2023-01-23T07:46:03.482Z,99894.31
2023-01-23T07:48:30.202Z,99893.03
2023-01-23T07:50:57.152Z,99881.94
2023-01-23T07:53:23.881Z,99882.66
2023-01-23T07:55:50.563Z,99891.31
2023-01-23T07:58:17.295Z,99886.19
2023-01-23T08:00:44.438Z,99896.16
2023-01-23T08:03:11.333Z,99895.34
2023-01-23T08:05:38.152Z,99898.31
2023-01-23T08:08:13.061Z,99907.78
2023-01-23T08:10:41.372Z,99907.72
2023-01-23T08:13:08.330Z,99908.50
2023-01-23T08:15:37.669Z,99898.25
2023-01-23T08:18:05.108Z,99906.50
2023-01-23T08:20:31.830Z,99905.28
2023-01-23T08:22:59.399Z,99902.16
2023-01-23T08:25:26.227Z,99905.06
2023-01-23T08:27:52.977Z,99902.91
2023-01-23T08:30:20.060Z,99904.81
2023-01-23T08:32:47.113Z,99891.06
2023-01-23T08:35:13.987Z,99904.28
2023-01-23T08:37:42.146Z,99906.38
2023-01-23T08:40:09.662Z,99901.25
2023-01-23T08:42:36.333Z,99911.50
2023-01-23T08:45:03.612Z,99910.00
2023-01-23T08:47:30.695Z,99916.59
2023-01-23T08:49:57.393Z,99909.91
2023-01-23T08:52:24.212Z,99914.81
2023-01-23T08:54:50.888Z,99902.34
2023-01-23T08:57:17.613Z,99906.84
2023-01-23T08:59:44.371Z,99901.09
2023-01-23T09:02:12.883Z,99898.88
2023-01-23T09:04:39.656Z,99890.47
2023-01-23T09:07:06.347Z,99885.13
2023-01-23T09:09:33.071Z,99883.25
2023-01-23T09:11:59.775Z,99875.59
2023-01-23T09:14:26.464Z,99861.56
2023-01-23T09:16:53.266Z,99878.41
2023-01-23T09:19:20.085Z,99878.81
2023-01-23T09:21:46.888Z,99881.88
2023-01-23T09:24:13.659Z,99891.25
2023-01-23T09:26:40.504Z,99896.44
2023-01-23T09:29:07.176Z,99901.22
2023-01-23T09:31:33.933Z,99890.31
2023-01-23T09:34:00.712Z,99900.28
2023-01-23T09:36:41.694Z,99911.03
2023-01-23T09:39:09.430Z,99915.22
2023-01-23T09:41:36.572Z,99906.34
2023-01-23T09:44:11.236Z,99904.28
2023-01-23T09:46:46.287Z,99918.81
2023-01-23T09:49:25.301Z,99916.31
2023-01-23T09:52:00.968Z,99914.53
2023-01-23T09:54:44.424Z,99922.91
2023-01-23T09:57:18.830Z,99918.22
2023-01-23T09:59:59.824Z,99923.72
2023-01-23T10:02:27.938Z,99919.69
2023-01-23T10:04:56.484Z,99921.16
2023-01-23T10:07:51.092Z,99917.22
2023-01-23T10:10:44.763Z,99919.16
2023-01-23T10:13:19.888Z,99904.00
2023-01-23T10:16:08.182Z,99916.34
2023-01-23T10:18:47.911Z,99903.94
2023-01-23T10:21:29.179Z,99911.22
2023-01-23T10:24:15.543Z,99917.94
2023-01-23T10:26:45.012Z,99912.53
2023-01-23T10:29:17.764Z,99914.41
2023-01-23T10:31:51.731Z,99916.31
2023-01-23T10:34:27.608Z,99903.88
2023-01-23T10:37:21.781Z,99902.13
2023-01-23T10:39:59.870Z,99896.41
2023-01-23T10:42:27.510Z,99903.97
2023-01-23T10:44:54.408Z,99898.00
2023-01-23T10:47:32.795Z,99886.78
2023-01-23T10:50:00.819Z,99897.31
2023-01-23T10:52:38.384Z,99898.56
2023-01-23T10:55:27.066Z,99894.91
2023-01-23T10:57:55.846Z,99889.00
2023-01-23T11:00:45.964Z,99896.00
2023-01-23T11:03:29.004Z,99883.53
2023-01-23T11:06:01.770Z,99879.56
2023-01-23T11:08:31.247Z,99881.94
2023-01-23T11:11:19.733Z,99877.72
2023-01-23T11:13:48.549Z,99885.53
2023-01-23T11:16:22.318Z,99885.47
2023-01-23T11:18:55.984Z,99886.63
2023-01-23T11:21:24.474Z,99876.84
2023-01-23T11:24:18.860Z,99876.16
2023-01-23T11:26:47.599Z,99876.91
2023-01-23T11:29:25.843Z,99876.09
2023-01-23T11:32:06.144Z,99874.38
2023-01-23T11:35:17.973Z,99864.44
2023-01-23T11:37:44.726Z,99868.59
2023-01-23T11:40:15.195Z,99856.44
2023-01-23T11:42:43.332Z,99862.03
2023-01-23T11:45:26.258Z,99868.78
2023-01-23T11:48:09.183Z,99865.00
2023-01-23T11:51:02.086Z,99847.00
2023-01-23T11:53:43.809Z,99850.34
2023-01-23T11:56:32.529Z,99863.06
2023-01-23T11:59:05.041Z,99864.84
2023-01-23T12:01:40.567Z,99858.84
2023-01-23T12:04:28.914Z,99865.22
2023-01-23T12:07:17.989Z,99864.38
2023-01-23T12:10:03.145Z,99869.47
2023-01-23T12:13:07.224Z,99865.03
2023-01-23T12:15:50.638Z,99865.47
2023-01-23T12:18:54.932Z,99870.88
2023-01-23T12:21:44.343Z,99863.69
2023-01-23T12:24:49.862Z,99875.81
2023-01-23T12:27:20.325Z,99867.88
2023-01-23T12:30:11.761Z,99855.97
2023-01-23T12:32:56.829Z,99871.03
2023-01-23T12:35:50.690Z,99854.19
2023-01-23T12:38:35.634Z,99858.03
2023-01-23T12:41:22.616Z,99870.59
2023-01-23T12:44:15.764Z,99857.06
2023-01-23T12:46:51.381Z,99864.94
2023-01-23T12:49:47.695Z,99863.69
2023-01-23T12:52:32.920Z,99859.34
2023-01-23T12:55:16.222Z,99857.91
2023-01-23T12:57:59.331Z,99857.06
2023-01-23T13:00:55.406Z,99857.22
2023-01-23T13:03:45.490Z,99851.81
2023-01-23T13:06:24.986Z,99848.25
2023-01-23T13:09:18.504Z,99844.78
2023-01-23T13:12:00.494Z,99838.34
2023-01-23T13:14:34.738Z,99839.72
2023-01-23T13:17:48.768Z,99839.31
2023-01-23T13:20:46.160Z,99843.84
2023-01-23T13:23:19.909Z,99845.09
2023-01-23T13:25:47.351Z,99847.75
2023-01-23T13:28:45.288Z,99839.56
2023-01-23T13:31:37.158Z,99843.16
2023-01-23T13:34:24.841Z,99832.16
2023-01-23T13:36:53.119Z,99829.63
2023-01-23T13:39:26.181Z,99832.84
2023-01-23T13:42:14.066Z,99832.84
2023-01-23T13:45:27.600Z,99833.81
2023-01-23T14:22:35.329Z,99841.66
2023-01-23T14:25:02.406Z,99846.34
2023-01-23T14:27:31.637Z,99842.69
2023-01-23T14:30:01.145Z,99829.72
2023-01-23T14:32:33.772Z,99828.75
2023-01-23T14:35:01.545Z,99839.25
2023-01-23T14:37:38.272Z,99836.72
2023-01-23T14:40:18.237Z,99843.19
2023-01-23T14:43:09.330Z,99838.00
2023-01-23T14:45:37.251Z,99836.63
2023-01-23T14:48:13.833Z,99835.09
2023-01-23T14:50:41.147Z,99829.97
2023-01-23T14:53:16.583Z,99830.00
2023-01-23T14:55:49.656Z,99828.31
2023-01-23T14:58:23.847Z,99844.56
2023-01-23T15:00:53.276Z,99855.34
2023-01-23T15:03:36.430Z,99855.34
2023-01-23T15:06:08.080Z,99845.50
2023-01-23T15:08:36.648Z,99848.34
2023-01-23T15:11:06.407Z,99855.94
2023-01-23T15:13:33.108Z,99848.28
2023-01-23T15:16:02.197Z,99857.63
2023-01-23T15:18:31.365Z,99854.94
2023-01-23T15:21:04.516Z,99853.22
2023-01-23T15:23:37.292Z,99863.78
2023-01-23T15:26:31.872Z,99862.59
2023-01-23T15:29:19.721Z,99857.97
2023-01-23T15:31:50.234Z,99875.38
2023-01-23T15:34:17.008Z,99873.19
2023-01-23T15:36:57.901Z,99870.50
2023-01-23T15:39:30.957Z,99863.78
2023-01-23T15:42:23.257Z,99872.56
2023-01-23T15:44:50.137Z,99873.88
2023-01-23T15:47:17.020Z,99868.09
2023-01-23T15:49:43.797Z,99875.66
2023-01-23T15:52:21.586Z,99870.75
2023-01-23T15:55:00.084Z,99871.47
2023-01-23T15:57:27.497Z,99880.53
2023-01-23T15:59:54.333Z,99879.88
2023-01-23T16:02:33.143Z,99884.59
2023-01-23T16:05:01.685Z,99882.19
2023-01-23T16:07:44.749Z,99881.59
2023-01-23T16:10:19.815Z,99885.91
2023-01-23T16:12:49.637Z,99879.84
2023-01-23T16:15:20.152Z,99876.94
2023-01-23T16:17:47.895Z,99880.22
2023-01-23T16:20:23.403Z,99880.59
2023-01-23T16:22:53.110Z,99879.56
2023-01-23T16:25:43.093Z,99879.56
2023-01-23T16:28:22.783Z,99872.56
2023-01-23T16:30:50.749Z,99874.94
2023-01-23T16:33:17.932Z,99871.47
2023-01-23T16:35:45.332Z,99868.00
2023-01-23T16:38:20.494Z,99864.59
2023-01-23T16:40:47.346Z,99864.09
2023-01-23T16:43:14.013Z,99863.19
2023-01-23T16:45:40.774Z,99864.94
2023-01-23T16:48:10.866Z,99864.09
2023-01-23T16:50:51.252Z,99867.59
2023-01-23T16:53:24.448Z,99862.75
2023-01-23T16:55:53.974Z,99864.53
2023-01-23T16:58:27.794Z,99864.97
2023-01-23T17:01:01.139Z,99862.44
2023-01-23T17:03:32.659Z,99862.53
2023-01-23T17:05:59.941Z,99857.97
2023-01-23T17:08:27.240Z,99861.75
2023-01-23T17:11:00.382Z,99855.47
2023-01-23T17:13:30.924Z,99858.84
2023-01-23T17:15:57.765Z,99860.56
2023-01-23T17:18:31.103Z,99858.84
2023-01-23T17:20:58.798Z,99849.16
2023-01-23T17:23:26.127Z,99855.13
2023-01-23T17:26:00.286Z,99849.69
2023-01-23T17:28:28.631Z,99853.94
2023-01-23T17:30:57.866Z,99855.59
2023-01-23T17:33:28.649Z,99856.47
2023-01-23T17:35:56.057Z,99852.97
2023-01-23T17:38:25.802Z,99858.94
2023-01-23T17:40:53.464Z,99861.59
2023-01-23T17:43:21.040Z,99859.69
2023-01-23T17:45:50.133Z,99871.03
2023-01-23T17:48:27.183Z,99863.94
2023-01-23T17:50:54.157Z,99865.72
2023-01-23T17:53:21.455Z,99871.75
2023-01-23T17:55:52.682Z,99861.25
2023-01-23T17:58:20.558Z,99862.88
2023-01-23T18:00:52.239Z,99865.44
2023-01-23T18:03:24.560Z,99870.25
2023-01-23T18:05:51.241Z,99879.06
2023-01-23T18:08:21.532Z,99882.44
2023-01-23T18:10:52.275Z,99880.63
2023-01-23T18:13:37.017Z,99878.91
2023-01-23T18:16:13.350Z,99878.75
2023-01-23T18:18:41.833Z,99877.66
2023-01-23T18:21:17.768Z,99874.00
2023-01-23T18:23:45.339Z,99883.63
2023-01-23T18:26:53.842Z,99879.00
2023-01-23T18:29:40.712Z,99883.22
2023-01-23T18:32:33.217Z,99879.72
2023-01-23T18:35:12.061Z,99877.09
2023-01-23T18:38:06.753Z,99877.19
2023-01-23T18:41:05.261Z,99869.34
2023-01-23T18:43:40.871Z,99870.09
2023-01-23T18:46:20.232Z,99856.00
2023-01-23T18:48:49.376Z,99843.94
2023-01-23T18:51:39.528Z,99850.69
2023-01-23T18:54:12.144Z,99849.66
2023-01-23T18:56:55.853Z,99849.91
2023-01-23T18:59:49.534Z,99849.34
2023-01-23T19:02:35.042Z,99854.28
2023-01-23T19:05:23.767Z,99859.44
2023-01-23T19:07:51.022Z,99863.13
2023-01-23T19:10:23.200Z,99864.75
2023-01-23T19:13:02.568Z,99865.91
2023-01-23T19:15:44.571Z,99864.94
2023-01-23T19:18:42.207Z,99875.19
2023-01-23T19:21:16.673Z,99878.06
2023-01-23T19:23:55.919Z,99871.94
2023-01-23T19:26:23.629Z,99880.00
2023-01-23T19:28:50.762Z,99883.84
2023-01-23T19:31:22.522Z,99876.00
2023-01-23T19:33:49.716Z,99887.09
2023-01-23T19:36:16.678Z,99886.53
2023-01-23T19:38:43.931Z,99882.13
2023-01-23T19:41:21.785Z,99880.25
2023-01-23T19:43:53.947Z,99886.44
2023-01-23T19:46:24.287Z,99887.25
2023-01-23T19:48:51.495Z,99881.22
2023-01-23T19:51:19.962Z,99894.66
2023-01-23T19:53:46.956Z,99885.72
2023-01-23T19:56:17.887Z,99889.66
2023-01-23T19:58:45.190Z,99888.34
2023-01-23T20:01:37.031Z,99897.88
2023-01-23T20:04:04.740Z,99899.69
2023-01-23T20:06:34.282Z,99900.88
2023-01-23T20:09:01.164Z,99884.91
2023-01-23T20:11:27.850Z,99884.84
2023-01-23T20:13:54.539Z,99880.69
2023-01-23T20:16:25.043Z,99902.66
2023-01-23T20:18:53.605Z,99898.53
2023-01-23T20:21:22.809Z,99899.53
2023-01-23T20:23:50.137Z,99912.56
2023-01-23T20:26:18.981Z,99909.94
2023-01-23T20:28:55.665Z,99914.06
2023-01-23T20:31:22.803Z,99916.59
2023-01-23T20:33:49.873Z,99918.53
2023-01-23T20:36:16.698Z,99922.28
2023-01-23T20:38:43.603Z,99921.13
2023-01-23T20:41:13.099Z,99916.88
2023-01-23T20:43:42.745Z,99925.25
2023-01-23T20:46:11.277Z,99917.41
2023-01-23T20:48:39.997Z,99921.50
2023-01-23T20:51:09.647Z,99928.50
2023-01-23T20:53:39.483Z,99933.25
2023-01-23T20:56:13.796Z,99941.38
2023-01-23T20:59:02.395Z,99946.28
2023-01-23T21:01:52.687Z,99943.59
2023-01-23T21:04:20.500Z,99947.75
2023-01-23T21:06:47.338Z,99956.91
2023-01-23T21:09:14.552Z,99956.56
2023-01-23T21:11:41.245Z,99947.47
2023-01-23T21:14:08.776Z,99945.03
2023-01-23T21:16:35.826Z,99949.59
2023-01-23T21:19:02.977Z,99948.91
2023-01-23T21:21:29.860Z,99941.16
2023-01-23T21:23:56.624Z,99931.69
2023-01-23T21:26:26.205Z,99932.91
2023-01-23T21:28:55.023Z,99939.97
2023-01-23T21:31:25.244Z,99943.88
2023-01-23T21:33:52.532Z,99949.84
2023-01-23T21:36:22.513Z,99940.53
2023-01-23T21:38:51.285Z,99955.72
2023-01-23T21:41:18.749Z,99944.13
2023-01-23T21:43:45.764Z,99957.97
2023-01-23T21:46:13.097Z,99963.50
2023-01-23T21:48:39.805Z,99954.63
2023-01-23T21:51:13.721Z,99969.22
2023-01-23T21:53:42.290Z,99974.53
2023-01-23T21:56:10.534Z,99974.47
2023-01-23T21:58:37.635Z,99972.28
2023-01-23T22:01:26.031Z,99981.69
2023-01-23T22:03:53.086Z,99974.44
2023-01-23T22:06:19.902Z,99976.00
2023-01-23T22:08:47.057Z,99974.66
2023-01-23T22:11:14.263Z,99964.50
2023-01-23T22:13:41.114Z,99961.59
2023-01-23T22:16:08.130Z,99973.34
2023-01-23T22:18:34.900Z,99954.09
2023-01-23T22:21:04.363Z,99960.53
2023-01-23T22:23:31.828Z,99951.25
2023-01-23T22:26:01.202Z,99964.25
2023-01-23T22:28:28.476Z,99966.94
2023-01-23T22:30:56.104Z,99960.41
2023-01-23T22:33:24.051Z,99959.44
2023-01-23T22:35:52.671Z,99957.97
2023-01-23T22:38:19.375Z,99952.59
2023-01-23T22:40:46.112Z,99940.34
2023-01-23T22:43:12.787Z,99954.63
2023-01-23T22:45:39.533Z,99955.50
2023-01-23T22:48:06.560Z,99950.38
2023-01-23T22:50:33.267Z,99950.41
2023-01-23T22:53:00.051Z,99951.78
2023-01-23T22:55:26.819Z,99948.41
2023-01-23T22:57:53.525Z,99940.47
2023-01-23T23:00:20.668Z,99942.84
2023-01-23T23:02:47.412Z,99945.16
2023-01-23T23:05:14.401Z,99942.91
2023-01-23T23:07:41.279Z,99941.81
2023-01-23T23:10:09.688Z,99944.50
2023-01-23T23:12:36.434Z,99943.00
2023-01-23T23:15:03.537Z,99950.97
2023-01-23T23:17:30.440Z,99949.66
2023-01-23T23:19:57.153Z,99957.81
2023-01-23T23:22:23.827Z,99954.16
2023-01-23T23:24:50.498Z,99957.41
2023-01-23T23:27:17.176Z,99953.44
2023-01-23T23:29:43.897Z,99952.28
2023-01-23T23:32:10.671Z,99944.72
2023-01-23T23:34:37.519Z,99947.59
2023-01-23T23:37:04.294Z,99948.44
2023-01-23T23:39:31.038Z,99951.88
2023-01-23T23:41:58.568Z,99952.38
2023-01-23T23:44:25.350Z,99952.56
2023-01-23T23:46:52.080Z,99954.78
2023-01-23T23:49:18.857Z,99951.13
2023-01-23T23:51:45.616Z,99941.88
2023-01-23T23:54:12.425Z,99956.56
2023-01-23T23:56:39.317Z,99957.22
2023-01-23T23:59:06.151Z,99954.63
